Warning: Javascript must be enabled to use all the features on this page!


Page Loading - Please Wait...

Click to hideNews Bulletins

Current Conditions for Wisconsin: Streamflow -- 265 site(s) found

PROVISIONAL DATA SUBJECT TO REVISION





Customize table to display other current-condition parameters
Station
Number
Station name Date/Time Gage
height,
feet
Dis-
charge,
ft3/s
Long-
term
median
flow
4/19
Group LAKE SUPERIOR BASIN
04024430 NEMADJI RIVER NEAR SOUTH SUPERIOR, WI  04/19 01:00 CDT -- 1,540 751 
      [Primary Stage]  04/19 01:00 CDT 10.84 --     --- 
04025500 BOIS BRULE RIVER AT BRULE, WI  04/19 01:00 CDT 2.12 214 258 
04026005 BOIS BRULE RIVER NEAR LAKE SUPERIOR, WI  04/19 01:30 CDT 5.43 326 605 
04026157 SISKIWIT RIVER AT CTY HWY C NEAR CORNUCOPIA, WI  10/28 13:00 CDT Dis Dis     --- 
04026160 SISKIWIT RIVER AT CORNUCOPIA, WI  04/19 01:00 CDT 3.82 22.2 36.0 
040263205 WHITTLESEY CREEK NEAR ASHLAND, WI  04/19 01:00 CDT 2.37 24.0 24.0 
04026390 BEARTRAP CREEK AT U.S. HIGHWAY 2 NEAR ASHLAND, WI  04/19 01:00 CDT 7.12 --     --- 
    10/08 09:45 CDT -- 14.0 54.0 
04026561 TYLER FORKS RIVER AT STRICKER ROAD NEAR MELLEN, WI  04/19 01:30 CDT 4.90 181 205 
040265935 MARENGO RIVER AT FOUR CORNERS RD NR MASON, WI  04/19 01:00 CDT 4.45 198     --- 
040265981 MARENGO RIVER AT RIEMER ROAD NR MARENGO, WI  04/19 01:00 CDT 7.40 222     --- 
04026740 MARENGO RIVER NEAR MELLEN, WI  04/19 01:00 CDT -- 489 996 
      [FINAL STAGE]  04/19 01:00 CDT 9.13 --     --- 
04027000 BAD RIVER NEAR ODANAH, WI  04/19 01:45 CDT 5.01 1,500 1,890 
04027500 WHITE RIVER NEAR ASHLAND, WI  04/19 01:35 CDT 1.47 444 452 
04027595 BAD RIVER AT ODANAH, WI  04/19 01:00 CDT 1.92 --     --- 
040276505 DENOMIE CREEK AT MAPLE STREET NEAR ODANAH, WI  04/19 01:00 CDT 6.97 Bkw 46.0 
463741090521301 ASHLAND BREAKWATER LIGHTHOUSE CHEQUAMEGON BAY, WI 
      [2 min ave (IGLD85)]  04/19 01:00 CDT 601.18 --     --- 
463836090423701 Kakagon River Slough near Odanah WI  04/19 01:00 CDT 9.25 --     --- 
464646092052900 SUPERIOR BAY DULUTH SHIP CANAL AT DULUTH, MN  10/01 00:55 CDT Dis Dis     --- 
Group MENOMINEE-OCONTO-PESHTIGO RIVER BASINS
04060993 BRULE RIVER AT US HIGHWAY 2 NEAR FLORENCE, WI  04/19 00:30 CST 4.30 528 607 
04062011 BRULE RIVER NEAR COMMONWEALTH, WI  04/19 00:30 CST 7.61 945 900 
04063000 MENOMINEE RIVER NEAR FLORENCE, WI  04/19 00:00 CST 3.83 1,240 2,810 
04063700 POPPLE RIVER NEAR FENCE, WI  04/19 01:45 CDT 3.42 282 328 
04064500 PINE RIVER BELOW PINE R POWERPLANT NR FLORENCE, WI  04/19 01:00 CDT 3.97 914 1,140 
04065106 MENOMINEE RIVER AT NIAGARA, WI  04/19 01:00 CDT 6.69 2,300 3,469 
04065722 MENOMINEE RIVER NEAR VULCAN, MI  04/19 01:00 CST 7.25 3,360 4,250 
04066003 MENOMINEE RIVER BELOW PEMENE CREEK NR PEMBINE, WI  04/19 01:00 CDT 8.87 3,640 4,770 
04066030 MENOMINEE RIVER AT WHITE RAPIDS DAM NEAR BANAT, MI  04/19 01:30 CDT 8.23 3,880 4,870 
04066500 PIKE RIVER AT AMBERG, WI  04/19 01:00 CDT 4.08 432 468 
04066800 MENOMINEE RIVER AT KOSS, MI  04/19 01:00 CDT 11.20 4,140 6,430 
04067500 MENOMINEE RIVER NEAR MC ALLISTER, WI  04/19 01:00 CDT 10.91 4,700 6,180 
04067958 PESHTIGO RIVER NEAR WABENO, WI  04/19 01:00 CDT 5.18 849 806 
04069416 PESHTIGO RIVER AT PORTERFIELD, WI  04/19 00:55 CDT 9.30 1,570 1,840 
04069500 PESHTIGO RIVER AT PESHTIGO, WI  04/19 01:00 CDT 3.54 1,540 1,920 
04071000 OCONTO RIVER NEAR GILLETT, WI  04/19 01:00 CDT 2.11 778 1,150 
04071765 OCONTO RIVER NEAR OCONTO, WI  04/19 01:00 CDT 5.70 1,160 1,330 
04072076 SILVER CREEK AT FLORIST DRIVE AT ONEIDA, WI  04/19 01:00 CDT 3.26 5.06 4.00 
04072150 DUCK CREEK NEAR HOWARD, WI  04/19 01:00 CDT 12.38 115 67.0 
445322088281801 BERRY LAKE NEAR SHAWANO, WI  04/19 02:00 CDT 92.71 --     --- 
Group FOX-WOLF RIVER BASINS
04073240 CHAFFEE CREEK AT I-39 NEAR COLOMA, WI  04/19 01:00 CDT 3.60 11.3 13.0 
04073365 FOX RIVER AT PRINCETON, WI  04/19 01:00 CDT 6.40 1,220 1,400 
04073457 WUERCHES CREEK AT CT HWY B NEAR GREEN LAKE, WI  04/19 01:02 CDT 4.84 1.55     --- 
04073458 ROY CREEK AT ROY CREEK ROAD NEAR GREEN LAKE, WI  04/19 01:02 CDT 4.61 0.93 7.50 
040734605 GREEN LAKE SW INLET @ CT HIGHWY K NR GREEN LAKE,WI 
      [(2)]  04/19 01:00 CDT 6.78 --     --- 
      [(4)]  04/19 01:00 CDT -- 2.70 20.0 
04073462 WHITE CREEK AT SPRING GROVE ROAD NR GREEN LAKE, WI  04/19 01:00 CDT 4.44 Ice 4.70 
04073466 SILVER CREEK AT SPAULDING ROAD NEAR GREEN LAKE, WI  04/19 00:55 CDT -- 62.5 54.0 
      [Stage]  04/19 01:00 CDT 7.05 --     --- 
04073473 PUCHYAN RIVER DS N. LAWSON DRIVE NR GREEN LAKE, WI  04/19 01:00 CDT 7.57 114 93.0 
04073500 FOX RIVER AT BERLIN, WI  04/19 01:00 CDT 10.49 1,630 2,060 
04074950 WOLF RIVER AT LANGLADE, WI  04/19 01:00 CDT 8.75 807 912 
04077630 RED RIVER AT MORGAN ROAD NEAR MORGAN, WI  04/19 01:00 CDT 6.65 261 213 
04078500 EMBARRASS RIVER NEAR EMBARRASS, WI  04/19 01:00 CDT 4.64 928 615 
04079000 WOLF RIVER AT NEW LONDON, WI  04/19 01:00 CDT -- 2,720 3,780 
      [Primary Stage]  04/19 01:00 CDT 5.67 --     --- 
0407991001 Unk Trib to SB Little Wolf River nr Ogdensburg, WI  04/19 01:02 CDT 3.32 --     --- 
04080798 TOMORROW RIVER NEAR NELSONVILLE, WI  04/19 01:00 CDT 8.92 49.6 47.0 
04081500 WOLF RIVER AT WINNECONNE, WI  04/19 01:00 CDT 8.58 8,030     --- 
04082400 FOX RIVER AT OSHKOSH, WI  04/19 01:05 CDT 5.99 --     --- 
      [(4)]  04/19 01:05 CDT -- 8,890 9,000 
04082500 LAKE WINNEBAGO AT OSHKOSH, WI  04/19 01:00 CDT 2.50 --     --- 
04083545 FOND DU LAC RIVER @ W. ARNDT ST. AT FOND DU LAC,WI  04/19 01:00 CDT 2.85 483     --- 
04084255 LAKE WINNEBAGO NEAR STOCKBRIDGE, WI  04/19 01:00 CDT 2.48 --     --- 
04084445 FOX RIVER AT APPLETON, WI  04/19 01:00 CDT -- 5,820 6,720 
      [PIER]  04/19 01:00 CDT 5.89 --     --- 
04084911 PLUM CREEK NEAR WRIGHTSTOWN, WI  04/19 01:00 CDT 2.56 9.21 11.0 
04085068 ASHWAUBENON CREEK NEAR LITTLE RAPIDS, WI  04/19 01:00 CDT 3.72 9.31 3.70 
040850684 ASHWAUBENON CREEK AT GRANT ST NR WEST DEPERE, WI  04/19 01:00 CDT 4.52 14.8 12.0 
04085074 DUTCHMAN CREEK AT CYRUS ST NR ASHWAUBENON, WI  04/19 01:00 CDT 4.71 9.16 5.00 
04085078 DUTCHMAN CREEK AT HANSEN RD AT ASHWAUBENON, WI  04/19 01:00 CDT 5.08 29.9 16.0 
04085108 EAST RIVER @ CNTY TRUNK HIGHWAY ZZ NR GREENLEAF,WI  04/19 01:00 CDT -- 24.3 32.0 
      [BUBBLER Stage]  04/19 01:00 CDT 5.76 --     --- 
04085138 EAST RIVER AT GREEN BAY, WI  04/19 01:00 CDT 8.41 62.1     --- 
040851385 FOX RIVER AT OIL TANK DEPOT AT GREEN BAY, WI 
      [(2)]  04/19 01:20 CDT -- 5,750 7,670 
      [Stage IGLD85]  04/19 01:20 CDT 579.06 --     --- 
434840089000001 GREEN LAKE AT GREEN LAKE, WI  04/19 01:00 CDT 6.78 --     --- 
441520088045001 GLRI EAST RIVER WATERWAY 3 NEAR GREENLEAF, WI  04/19 01:30 CDT -0.01 --     --- 
      [COMBINED]  04/19 01:30 CDT -- 0.0000     --- 
441520088045002 GLRI EAST RIVER TILE 1 NEAR GREENLEAF, WI  10/01 00:45 CDT -- 0.00000 .030 
441546088082001 GLRI EAST RIVER WATERWAY NUMBER 2 NR GREENLEAF, WI  09/28 15:00 CDT 0.00 0.0000     --- 
441605088115701 TRT WETLAND TWO SURFACE INLET NR KAUKAUNA, WI  04/19 01:00 CDT -0.01 0.00     --- 
441605088115702 TRT WETLAND TWO DRAIN TILE INLET NR KAUKAUNA, WI  04/19 01:00 CDT 0.10 --     --- 
      [(2)]  04/19 01:00 CDT -- 0.00     --- 
441605088115703 TRT WETLAND TWO OUTLET NR KAUKAUNA, WI  04/19 01:00 CDT 700.55 --     --- 
      [FINAL Discharge]  04/19 01:00 CDT -- 0.05     --- 
      [OVERFLOW FLUME STAGE]  04/19 01:00 CDT 1.14 --     --- 
442114088085701 GLRI WATERWAY NUMBER 5 NR WRIGHTSTOWN, WI  04/18 11:00 CDT 0.04 --     --- 
      [FINAL]  04/18 11:00 CDT -- 0.01146     --- 
442119088085501 GLRI WATERWAY NUMBER 4 NR WRIGHTSTOWN, WI  04/18 11:00 CDT -0.00 --     --- 
      [COMBINED]  04/18 11:00 CDT -- 0.0000     --- 
444049087424302 GLRI BIOREACTOR INLET NR DUVALL,WI  04/18 12:02 CDT Eqp 0.03     --- 
444049087424303 GLRI BIOREACTOR OUTLET NR DUVALL, WI  04/18 12:02 CDT Eqp --     --- 
      [FIANL, PRIMARY]  04/18 12:02 CDT -- 0.01     --- 
Group LAKE MICHIGAN BASIN
04085200 KEWAUNEE RIVER NEAR KEWAUNEE, WI  04/19 01:00 CDT 10.11 268 129 
04085427 MANITOWOC RIVER AT MANITOWOC, WI  04/19 01:00 CDT 5.78 545 763 
04086000 SHEBOYGAN RIVER AT SHEBOYGAN, WI  04/19 01:00 CDT 2.80 430 467 
04086500 CEDAR CREEK NEAR CEDARBURG, WI  04/19 01:15 CDT 6.34 203 117 
04086600 MILWAUKEE RIVER NEAR CEDARBURG, WI  04/19 01:00 CDT 6.90 --     --- 
      [(3)]  04/19 01:00 CDT -- 767 736 
040869416 LINCOLN CREEK @ SHERMAN BOULEVARD AT MILWAUKEE, WI  04/19 01:00 CDT 4.00 15.4 7.80 
04087000 MILWAUKEE RIVER AT MILWAUKEE, WI 
      [(2)]  04/19 00:30 CDT -- 1,040 734 
      [15-min Average]  04/19 00:30 CDT 3.04 --     --- 
040870115 MILWAUKEE RIVER D/S E CHERRY ST AT MILWAUKEE, WI  11/09 11:00 CST 5.30 --     --- 
04087030 MENOMONEE RIVER AT MENOMONEE FALLS, WI  04/19 00:30 CDT -- 61.2 39.0 
04087050 LITTLE MENOMONEE RIVER NEAR FREISTADT, WI  04/19 01:00 CDT 2.45 10.4 9.10 
04087070 LITTLE MENOMONEE RIVER AT MILWAUKEE, WI  04/19 01:00 CDT 4.61 29.3 17.0 
0408708567 UNDERWOOD CREEK AT UNNAMED ROAD, ELM GROVE, WI  12/13 13:00 CST Dis Dis 6.50 
040870860 UNDERWOOD CREEK AT W BLUE MOUND RD, ELM GROVE, WI  12/13 12:45 CST Dis --     --- 
      [(3)]  12/13 12:45 CST -- Dis     --- 
04087087 UNDERWOOD CREEK AT 115TH STREET AT WAUWATOSA, WI  12/13 13:00 CST Dis Dis     --- 
040870876 UNDERWOOD CR ON BIKE PATH/Rt 100, WAUWATOSA, WI.  12/13 13:15 CST 2.69 --     --- 
    12/13 13:00 CST -- 7.86 10.0 
04087088 UNDERWOOD CREEK AT WAUWATOSA, WI  04/19 01:00 CDT 9.00 30.6 15.0 
04087119 HONEY CREEK AT WAUWATOSA, WI  04/19 01:00 CDT 9.97 5.20 3.60 
04087120 MENOMONEE RIVER AT WAUWATOSA, WI  04/19 01:00 CDT 2.65 203 126 
04087142 MENOMONEE RIVER AT 16TH STREET AT MILWAUKEE, WI  04/19 01:05 CDT 13.12 --     --- 
      [Q-Vel]  04/19 01:05 CDT -- 250 195 
040871473 WILSON PARK CREEK AT GMIA INFALL AT MILWAUKEE, WI  04/19 01:05 CDT 10.74 0.63 .65 
040871475 WILSON PARK CREEK @ GMIA OUTFALL 7 @ MILWAUKEE,WI  04/19 01:15 CDT 11.09 2.65 1.70 
040871476 HOLMES AVE CRK TRIB @ GMIA OUTFALL 1 AT MILWAUKEE  04/19 01:00 CDT 0.10 0.00     --- 
040871488 WILSON PARK CK @ ST. LUKES HOSPITAL @ MILWAUKEE,WI  04/19 01:10 CDT 11.54 10.6 9.00 
04087159 KINNICKINNIC RIVER @ S. 11TH STREET @ MILWAUKEE,WI  04/19 01:00 CDT 6.49 21.7 14.0 
04087161 KINNICKINNIC RIVER AT S. 1ST ST AT MILWAUKEE, WI  05/04 09:25 CDT 7.06 --     --- 
04087170 MILWAUKEE RIVER AT MOUTH AT MILWAUKEE, WI  04/19 01:00 CDT 8.45 --     --- 
      [FINAL]  04/19 01:00 CDT -- 16,000 1,140 
04087204 OAK CREEK AT SOUTH MILWAUKEE, WI  04/19 01:45 CDT 2.76 28.6 23.0 
04087214 ROOT RIVER AT GRANGE AVENUE AT GREENDALE, WI  04/19 01:45 CDT 10.86 9.27 11.0 
04087220 ROOT RIVER NEAR FRANKLIN, WI  04/19 01:00 CDT 3.11 60.5 42.0 
04087233 ROOT RIVER CANAL NEAR FRANKLIN, WI  04/19 01:00 CDT 3.36 75.3 51.0 
04087234 ROOT RIVER AT 60TH ST NEAR CALEDONIA, WI  04/19 01:00 CDT 6.18 183 99.0 
04087240 ROOT RIVER AT RACINE, WI  04/19 01:00 CDT 3.40 277 155 
04087257 PIKE RIVER NEAR RACINE, WI  04/19 01:00 CDT 1.96 79.8 41.0 
425514088055201 EAST 12-IN WETLAND INLET NR CORNELL DR MUSKEGO, WI  04/19 01:02 CDT 0.00 --     --- 
425514088055301 CENTER 15IN WETLAND INLET NR CORNELL DR MUSKEGO WI 
      [ACOUSTIC]  04/05 21:02 CDT 0.00 --     --- 
425514088055601 WEST 18-IN WETLAND INLET NR CORNELL DR MUSKEGO, WI 
      [ACOUSTIC]  04/19 01:02 CDT 0.01 --     --- 
430528087571001 GREEN TECH BIOFILTER OUTLET AT MILWAUKEE, WI  04/19 01:02 CDT 0.01 --     --- 
430529087571001 GREEN TECH BIOFILTER INLET AT MILWAUKEE, WI  04/19 01:02 CDT 0.00 --     --- 
442155087330001 DISCOVERY FARMS WATERWAY KD2 NEAR KEWAUNEE, WI  04/19 01:00 CDT 0.00 0.0000     --- 
442405087414401 DISCOVERY FARMS WATERWAY KD1 NEAR KEWAUNEE, WI  04/19 01:00 CDT -- 0.0000     --- 
      [BUBBLER]  04/19 01:00 CDT 0.00 --     --- 
Group ST. CROIX RIVER BASIN
05331833 NAMEKAGON RIVER AT LEONARDS, WI  04/19 01:00 CDT 2.04 168 205 
05333500 ST. CROIX RIVER NEAR DANBURY, WI  04/19 01:00 CDT 2.03 1,990 2,130 
05335492 CLAM RIVER AT HWY 35 NR WEBSTER, WI  04/19 01:00 CDT 7.41 --     --- 
05340500 ST. CROIX RIVER AT ST. CROIX FALLS, WI  04/19 01:00 CDT 6.47 11,600 8,610 
05341498 APPLE RIVER ABOVE 05341499 AT PARK IN SOMERSET, WI  04/19 01:00 CDT 4.88 --     --- 
05341752 WILLOW RIVER @ WILLOW R STATE PARK NR BURKHARDT,WI  01/08 09:00 CST Dis Dis 195 
05342000 KINNICKINNIC RIVER NEAR RIVER FALLS, WI  04/19 01:00 CDT 8.26 122 115 
05344490 ST. CROIX RIVER AT PRESCOTT, WI  04/19 01:15 CDT 27.75 7,970 10,200 
05344500 MISSISSIPPI RIVER AT PRESCOTT, WI  04/19 01:15 CDT 27.75 --     --- 
    04/19 01:10 CDT -- 35,400 38,700 
Group CHIPPEWA RIVER BASIN
05356000 CHIPPEWA RIVER AT BISHOPS BRIDGE NEAR WINTER, WI  04/19 01:00 CDT 4.41 305 252 
05356500 CHIPPEWA RIVER NEAR BRUCE, WI  04/19 01:00 CDT 4.76 3,330 2,060 
05357206 ALLEQUASH CREEK SITE NO. 3 NR BOULDER JUNCTION, WI 
      [DOWNSTREAM]  04/19 01:00 CDT -- Dis 4.70 
      [Gage Height]  04/19 01:00 CDT Dis --     --- 
05357215 ALLEQUASH CREEK @ CT HWY M NR BOULDER JUNCTION, WI  04/19 00:45 CDT -- Dis 15.0 
      [Gage Height]  04/19 00:45 CDT Dis --     --- 
05357225 STEVENSON CREEK @ CT HWY M NR BOULDER JUNCTION, WI  02/05 09:00 CST -- Dis 3.80 
      [Gage Height]  02/05 09:00 CST Dis --     --- 
05357230 NORTH CREEK AT TROUT LAKE NEAR BOULDER JUNCTION,WI  02/05 11:00 CST -- Dis 3.70 
      [Gage Height]  02/05 11:00 CST Dis --     --- 
05357245 TROUT RIVER AT TROUT LAKE NEAR BOULDER JUNCTION,WI  04/19 01:00 CDT -- Dis 48.0 
      [Gage Height]  04/19 01:00 CDT Dis --     --- 
05357335 BEAR RIVER NEAR MANITOWISH WATERS, WI  04/19 01:15 CDT 3.96 102 126 
05359500 SOUTH FORK FLAMBEAU RIVER NEAR PHILLIPS, WI  04/19 01:45 CDT 6.99 1,180 1,820 
05360500 FLAMBEAU RIVER NEAR BRUCE, WI  04/19 01:00 CDT 7.59 2,890 3,200 
05362000 JUMP RIVER AT SHELDON, WI  04/19 01:00 CDT 5.88 1,460 1,220 
05363600 NF YELLOW R AT YELLOW RIVER RD NR PERKINSTOWN, WI  04/19 01:00 CDT -- Dis 235 
      [Gage height, feet , Averaged]  04/19 01:00 CDT 10.95 --     --- 
05364128 DRYWOOD CREEK AT COVERED FOOTBRIDGE NR CADOTT, WI  04/19 00:00 CST 7.12 222 67.0 
05365500 CHIPPEWA RIVER AT CHIPPEWA FALLS, WI  04/19 01:00 CDT 8.30 12,000 9,890 
05365550 CHIPPEWA RIVER BELOW DELLS DAM AT EAU CLAIRE, WI  04/19 01:00 CDT -- 12,800     --- 
      [RADAR]  04/19 01:00 CDT 8.99 --     --- 
05366800 CHIPPEWA R AT GRAND AVE AT EAU CLAIRE, WI  04/19 01:00 CDT 8.17 14,100 11,200 
05367500 RED CEDAR RIVER NEAR COLFAX, WI  04/19 01:00 CDT 4.01 1,630 1,050 
05368000 HAY RIVER AT WHEELER, WI  04/19 01:00 CDT 5.48 676 426 
05369000 RED CEDAR RIVER AT MENOMONIE, WI  04/19 01:00 CDT 8.23 2,700 1,710 
05369500 CHIPPEWA RIVER AT DURAND, WI  04/19 01:00 CDT 6.28 13,300 13,100 
05370000 EAU GALLE RIVER AT SPRING VALLEY, WI  04/19 01:45 CDT 14.04 108 30.0 
Group TREMPEALEAU-BLACK-LA CROSSE RIVER BASINS
05378500 MISSISSIPPI RIVER AT WINONA, MN  04/19 01:45 CDT 6.45 --     --- 
    04/19 01:15 CDT -- 45,400 58,099 
05379400 TREMPEALEAU RIVER AT ARCADIA, WI  04/19 01:00 CDT -- 723 525 
      [Current Stage]  04/19 01:00 CDT 4.23 --     --- 
05379500 TREMPEALEAU RIVER AT DODGE, WI  04/19 01:00 CDT 668.45 989 534 
      [Current Stage]  04/19 01:00 CDT 7.26 --     --- 
05381000 BLACK RIVER AT NEILLSVILLE, WI  04/19 01:00 CDT 5.92 1,570 1,000 
053813595 BLACK RIVER DS ST HWY 54 AT BLACK RIVER FALLS, WI  04/19 01:00 CDT 39.26 3,150 2,039 
05382000 BLACK RIVER NEAR GALESVILLE, WI  04/19 00:00 CDT -- 2,530 3,100 
      [Final Stage]  04/19 00:00 CDT 5.64 --     --- 
05382255 STILLWELL CREEK AT SIXTEENTH COURT NEAR TOMAH, WI  04/19 01:00 CDT 1.23 1.44 1.90 
05382257 STILLWELL CREEK AT YARD ROAD NEAR TOMAH, WI  04/19 01:00 CDT 1.66 1.03 2.20 
05382267 LA CROSSE RIVER @ CNTY TRUNK HIGHWY BB NR TOMAH,WI  04/19 01:00 CDT 6.07 70.0 87.0 
05382284 SILVER CREEK AT STATE HIGHWAY 21 NEAR ANGELO, WI  04/19 01:00 CDT 5.97 48.3 46.0 
05382325 LA CROSSE RIVER AT SPARTA, WI  04/19 01:15 CDT 3.79 187 178 
05383075 LA CROSSE RIVER NEAR LA CROSSE, WI  04/19 01:00 CDT 3.10 430 445 
05386400 MISSISSIPPI RIVER AT BROWNSVILLE, MN  04/19 01:45 CDT 31.04 --     --- 
05389500 Mississippi River at McGregor, IA  10/29 23:45 CDT 7.71 --     --- 
      [stage-only period of record]  04/19 01:45 CDT 9.40 --     --- 
Group WISCONSIN RIVER BASIN
05390100 LAC VIEUX DESERT NEAR LAND O'LAKES, WI  04/19 01:45 CDT 80.04 --     --- 
05390500 ANVIL LAKE NEAR EAGLE RIVER, WI 
      [(2)]  04/19 01:30 CDT 93.34 --     --- 
05391000 WISCONSIN RIVER @ RAINBOW LAKE NR LAKE TOMAHAWK,WI  04/19 01:00 CDT 0.79 253 319 
05393500 SPIRIT RIVER AT SPIRIT FALLS, WI  04/19 01:30 CDT 3.15 270 208 
05394500 PRAIRIE RIVER NEAR MERRILL, WI  04/19 01:00 CDT 3.76 494 374 
05395000 WISCONSIN RIVER AT MERRILL, WI  04/19 01:00 CDT 6.14 4,210 4,240 
05396000 BIG RIB RIVER AT RIB FALLS, WI  04/19 01:00 CDT 5.00 1,270 479 
05397500 EAU CLAIRE RIVER AT KELLY, WI  04/19 01:00 CDT 2.18 648 499 
05398000 WISCONSIN RIVER AT ROTHSCHILD, WI  04/19 01:00 CDT 17.08 --     --- 
      [SLOPE-SLPQ]  04/19 01:00 CDT -- 8,320 5,930 
05398100 WISCONSIN RIVER AT MOSINEE, WI  04/19 01:00 CDT 13.70 --     --- 
05399500 BIG EAU PLEINE RIVER AT STRATFORD, WI  04/19 01:00 CDT 4.98 510 197 
05400625 LITTLE PLOVER RIVER NEAR PLOVER, WI  04/19 01:00 CDT 3.47 8.52 7.40 
05400760 WISCONSIN RIVER AT WISCONSIN RAPIDS, WI  04/19 01:30 CDT 4.76 --     --- 
      [(2)]  04/19 00:55 CDT -- 10,800     --- 
05401034 S.BR.TENMILE CREEK NEAR BANCROFT, WI  04/19 01:00 CDT 3.55 9.48 17.0 
05401050 TENMILE CREEK NEAR NEKOOSA, WI  04/19 01:00 CDT 5.12 85.0 100 
05401063 LAKE HURON NEAR PLAINFIELD, WI  04/19 01:00 CDT 95.23 --     --- 
05401065 LONG LAKE NEAR PLAINFIELD, WI  04/19 01:45 CDT 14.41 --     --- 
05401514 BIG ROCHE A CRI CREEK AT HWY G NR LEOLA, WI  04/19 01:00 CDT 4.75 19.4 29.0 
05402000 YELLOW RIVER AT BABCOCK, WI  04/19 01:00 CDT 8.42 --     --- 
    04/19 00:30 CDT -- 1,260     --- 
05403000 YELLOW RIVER AT NECEDAH, WI  04/19 01:00 CDT 10.34 475 815 
05403202 WISCONSIN R BELOW CASTLE ROCK DAM NR MAUSTON, WI  04/19 02:00 CDT 13.34 --     --- 
05403500 LEMONWEIR RIVER AT NEW LISBON, WI  04/19 01:00 CDT 5.62 531 717 
05404000 WISCONSIN RIVER NEAR WISCONSIN DELLS, WI  04/19 01:00 CDT 5.38 11,100 11,200 
05404129 BARABOO RIVER AT LA VALLE, WI  04/19 01:00 CDT 7.35 --     --- 
05404140 W BRANCH BIG CREEK AT CLARK RD NR LA VALLE, WI  04/19 01:00 CDT 3.47 15.0 8.40 
05404147 BIG CREEK OUTLET AT LAKE REDSTONE NR LA VALLE, WI  04/19 01:00 CDT -- 47.1 23.0 
      [Bubbler Stage]  04/19 01:00 CDT 2.96 --     --- 
05404150 E BRANCH BIG CREEK AT LAVALLE RD NR LA VALLE, WI  04/19 01:00 CDT Dis Dis 4.00 
054041665 BARABOO RIVER AT MAIN STREET AT REEDSBURG, WI  04/19 01:00 CDT 9.93 --     --- 
05404500 DEVILS LAKE NEAR BARABOO, WI  04/19 01:00 CDT 7.28 --     --- 
05405000 BARABOO RIVER NEAR BARABOO, WI  04/19 01:00 CDT 10.21 783 509 
05406457 BLACK EARTH CREEK NR BREWERY RD AT CROSS PLAINS,WI  04/19 01:00 CDT 2.30 25.8 17.0 
05406469 BREWERY CREEK-UPSTREAM SITE-AT CROSS PLAINS, WI  04/19 01:00 CDT 2.39 3.62 3.70 
05406479 BLACK EARTH CK NR TREATMENT PLNT @ CROSS PLAINS,WI  04/19 01:00 CDT 2.88 28.9 28.0 
05406500 BLACK EARTH CREEK AT BLACK EARTH, WI  04/19 01:00 CDT 2.20 42.7 41.0 
05407000 WISCONSIN RIVER AT MUSCODA, WI  04/19 01:00 CDT -- 11,200 14,199 
      [FINAL]  04/19 01:00 CDT 2.80 --     --- 
05407468 KICKAPOO R @ ST HWY 131 AT ONTARIO, WI  04/19 01:00 CDT 8.87 96.9 100 
05408000 KICKAPOO RIVER AT LA FARGE, WI  04/19 01:00 CDT 3.84 280 213 
05410490 KICKAPOO RIVER AT STEUBEN, WI  04/19 01:45 CDT 7.26 631 637 
433821090063801 DISCOVERY FARMS WATERWAY RS2 NEAR MAUSTON, WI  10/02 09:45 CDT -0.00 0.0000     --- 
433939090050501 DISCOVERY FARMS WATERWAY RS1 NEAR MAUSTON, WI  10/02 09:45 CDT Dis Dis     --- 
435857089325301 PLEASANT LAKE NEAR WESTFIELD, WI  04/19 01:00 CDT 12.24 --     --- 
450157090060701 DISCOVERY FARMS WATERWAY MT1 NEAR ATHENS, WI 
      [PRIMARY, BUBBLER]  04/19 01:00 CDT 0.00 --     --- 
      [PRIMARY]  04/19 01:00 CDT -- 0.0000 .050 
451021089064901 DISCOVERY FARMS WATERWAY AO1 NEAR ANTIGO, WI  04/19 01:00 CDT 0.00 0.0000     --- 
451207089041801 DISCOVERY FARMS WATERWAY AO2 NEAR ANTIGO, WI  04/19 01:00 CDT 0.00 0.00000     --- 
451337089035401 DISCOVERY FARMS WATERWAY AO3 NEAR ANTIGO, WI  04/19 01:00 CDT 0.00 0.0000     --- 
Group GRANT-PLATTE-GALENA RIVER BASINS
05411500 Mississippi River at Clayton, IA  04/19 01:45 CDT 12.53 --     --- 
05413500 GRANT RIVER AT BURTON, WI  04/19 01:15 CDT -- 147 174 
      [PRIMARY STAGE]  04/19 01:15 CDT 5.19 --     --- 
05414000 PLATTE RIVER NEAR ROCKVILLE, WI  04/19 01:15 CDT -- 147 98.0 
      [Primary Stage]  04/19 01:15 CDT 4.29 --     --- 
Group ROCK RIVER BASIN
05423500 SOUTH BRANCH ROCK RIVER AT WAUPUN, WI  04/19 01:00 CDT 2.69 64.1 57.0 
05424057 ROCK RIVER AT HORICON, WI  04/19 00:55 CDT 6.87 --     --- 
      [PRIMARY, Q-Vel]  04/19 00:55 CDT -- 1,140 661 
05424157 ROCK RIVER NEAR LEBANON, WI  04/19 01:00 CDT 9.88 1,850     --- 
05425500 ROCK RIVER AT WATERTOWN, WI  04/19 01:00 CDT 4.15 2,300 1,230 
05425912 BEAVERDAM RIVER AT BEAVER DAM, WI  04/19 01:00 CDT 839.67 88.9 114 
05426000 CRAWFISH RIVER AT MILFORD, WI  04/19 01:00 CDT 4.95 1,560 833 
05426031 ROCK RIVER AT JEFFERSON, WI  04/19 01:00 CDT 8.04 --     --- 
05426067 BARK RIVER AT NAGAWICKA ROAD AT DELAFIELD, WI  04/19 01:00 CDT 12.87 56.3 37.0 
05426250 BARK RIVER NEAR ROME, WI  04/19 01:00 CDT 2.80 236 136 
05427085 ROCK RIVER AT FORT ATKINSON, WI  04/19 00:55 CDT 14.49 4,640 3,300 
05427235 LAKE KOSHKONONG NEAR NEWVILLE, WI  04/19 04:45 CDT 8.96 --     --- 
05427530 ROCK RIVER AT NEWVILLE, WI  04/19 01:00 CDT 5.13 --     --- 
      [(4)]  04/19 00:55 CDT -- 5,560 4,740 
05427718 YAHARA RIVER AT WINDSOR, WI  04/19 01:00 CDT 1.42 34.8 25.0 
05427850 YAHARA RIVER AT STATE HIGHWAY 113 AT MADISON, WI  04/19 01:00 CDT 10.29 --     --- 
      [(4)]  04/19 00:55 CDT -- 113 90.0 
05427880 SIXMILE CREEK AT STATE HIGHWAY 19 NEAR WAUNAKEE,WI  04/19 01:00 CDT 3.14 26.5 19.0 
05427905 SIXMILE CREEK AT WOODLAND DRIVE NEAR WAUNAKEE, WI  04/19 01:00 CDT 7.30 --     --- 
05427910 SIXMILE CREEK @ COUNTY TRNK HGHWY M NR WAUNAKEE,WI  04/19 00:55 CDT 10.23 --     --- 
      [PRIMARY]  04/19 00:55 CDT -- 28.1 40.0 
05427927 DORN (SPRING) CREEK @ CT HIGHWAY Q NR WAUNAKEE, WI  04/19 01:00 CDT 0.45 7.81 7.90 
05427930 DORN (SPRING) CREEK AT CT HIGHWAY M NR WAUNAKEE,WI  04/19 01:00 CDT 10.48 --     --- 
      [(4)]  04/19 00:55 CDT -- 12.7 8.50 
05427943 PHEASANT BRANCH AT AIRPORT ROAD NEAR MIDDLETON, WI  04/19 01:10 CDT 4.36 5.90 2.10 
054279465 S FORK PHEASANT BRANCH @ DEMING WAY @ MIDDLETON,WI  04/19 01:02 CDT 2.48 2.98 1.10 
05427948 PHEASANT BRANCH AT MIDDLETON, WI  04/19 01:00 CDT 3.99 13.7 3.20 
05427965 SPRING HARBOR STORM SEWER AT MADISON, WI  04/19 01:04 CDT -- 4.06 .33 
      [BUBBLER]  04/19 01:04 CDT 0.71 --     --- 
05428000 LAKE MENDOTA AT MADISON, WI 
      [(4)]  04/19 01:00 CDT 10.10 --     --- 
05428500 YAHARA RIVER AT EAST MAIN STREET AT MADISON, WI  04/19 01:00 CDT 5.41 321 255 
05429000 LAKE MONONA AT MADISON, WI  04/19 01:00 CDT 5.05 --     --- 
05429369 SWAN CREEK AT LALOR ROAD NEAR FITCHBURG, WI  04/19 01:00 CDT 5.79 5.36 4.50 
05429485 LAKE WAUBESA AT MC FARLAND, WI  04/19 01:15 CDT 4.80 --     --- 
05429500 YAHARA RIVER AT MC FARLAND, WI 
      [(6)]  04/19 01:15 CDT -- 294 262 
05429700 YAHARA RIVER @ FORTON STREET BRIDGE @ STOUGHTON,WI  04/19 00:55 CDT 6.64 500 406 
05430150 BADFISH CREEK NEAR COOKSVILLE, WI  04/19 01:00 CDT 5.25 154 120 
05430175 YAHARA RIVER NEAR FULTON, WI  04/19 01:00 CDT 5.48 694 455 
05430500 ROCK RIVER AT AFTON, WI  04/19 01:00 CDT 8.54 6,360 3,760 
05431016 JACKSON CREEK AT MOUND ROAD NEAR ELKHORN, WI  04/19 01:00 CDT 8.69 20.2 13.0 
05431022 DELAVAN LAKE OUTLET AT BORG ROAD NEAR DELAVAN, WI  04/19 01:00 CDT 5.38 4.93     --- 
05431486 TURTLE CREEK AT CARVERS ROCK ROAD NEAR CLINTON, WI  04/19 01:00 CDT 4.24 278 138 
05432500 PECATONICA RIVER AT DARLINGTON, WI  04/19 01:00 CDT 5.87 578 199 
05433000 EAST BRANCH PECATONICA RIVER NR BLANCHARDVILLE, WI  04/19 01:00 CDT 6.88 365 178 
05434500 PECATONICA RIVER AT MARTINTOWN, WI  04/19 01:00 CDT 10.60 1,950 773 
05435943 BADGER MILL CREEK AT VERONA, WI  04/19 01:00 CDT -- 12.8 13.0 
      [Current Stage]  04/19 01:00 CDT 4.41 --     --- 
05435950 SUGAR RIVER NEAR VERONA, WI  04/19 01:00 CDT 3.83 118 81.0 
05436500 SUGAR RIVER NEAR BRODHEAD, WI  04/19 01:00 CDT 2.70 805 392 
05438283 PISCASAW CREEK NEAR WALWORTH, WI  04/19 01:00 CDT 5.52 5.52 3.20 
425715089164700 LAKE KEGONSA AT BARBER DRIVE NEAR STOUGHTON, WI  04/19 01:00 CDT 3.12 --     --- 
430338089295701 DETENTION POND OUTLET AT MEMORIAL HS @ MADISON, WI  04/19 01:18 CDT 0.64 --     --- 
    04/19 01:09 CDT -- 0.13     --- 
Group ILLINOIS-FOX RIVER BASINS
05543830 FOX RIVER AT WAUKESHA, WI  04/19 01:00 CDT 3.87 246 159 
05544200 MUKWONAGO RIVER AT MUKWONAGO, WI  04/19 01:00 CDT 2.80 88.3 69.0 
05544348 FOX RIVER AT WATERFORD DAM, AT WATERFORD, WI  04/19 01:45 CDT 1.70 --     --- 
05544385 MUSKEGO (BIG MUSKEGO) LAKE OUTLET NR WIND LAKE, WI 
      HEADWATER, [Headwater]  04/19 01:45 CDT 11.84 --     --- 
      TAILWATER (BASE), [Tailwater]  04/19 01:45 CDT 8.94 --     --- 
05544475 FOX RIVER AT ROCHESTER, WI  04/19 01:45 CDT 4.42 --     --- 
055451345 WHITE RIVER AT CENTER STREET AT LAKE GENEVA, WI  04/19 00:55 CDT 8.49 --     --- 
    04/19 00:00 CDT -- 84.1 38.0 
05545750 FOX RIVER NEAR NEW MUNSTER, WI  04/19 01:00 CDT 9.160 1,200 851 
423000088164401 ELIZABETH LAKE AT TWIN LAKES, WI-IL 
      [Above NAVD88]  04/19 00:30 CST 794.25 --     --- 
423525088260400 GENEVA LAKE AT LAKE GENEVA, WI  04/19 00:45 CDT 2.73 --     --- 
424848088083100 WIND LAKE AT OUTLET AT WIND LAKE, WI 
      HEADWATER, [Headwater]  04/19 01:00 CDT 8.32 --     --- 
      TAILWATER, [Tailwater]  04/19 01:00 CDT 4.74 --     --- 

Data status codes:
  --     Parameter not determined
  Bkw     Flow affected by backwater
  Dis     Data-collection discontinued
  Eqp     Equipment malfunction
  Ice     Ice affected